sensor_id;sensor_type;location;lat;lon;timestamp;P1;durP1;ratioP1;P2;durP2;ratioP2
9675;SDS011;4876;42.656;23.292;2023-04-15T00:02:04;8.83;;;3.93;;
9675;SDS011;4876;42.656;23.292;2023-04-15T00:04:39;10.43;;;5.20;;
9675;SDS011;4876;42.656;23.292;2023-04-15T00:07:06;11.03;;;6.03;;
9675;SDS011;4876;42.656;23.292;2023-04-15T00:09:35;10.17;;;5.80;;
9675;SDS011;4876;42.656;23.292;2023-04-15T00:12:22;9.47;;;6.03;;
9675;SDS011;4876;42.656;23.292;2023-04-15T00:14:48;11.07;;;6.37;;
9675;SDS011;4876;42.656;23.292;2023-04-15T00:17:15;10.97;;;6.27;;
9675;SDS011;4876;42.656;23.292;2023-04-15T00:19:42;8.77;;;5.63;;
9675;SDS011;4876;42.656;23.292;2023-04-15T00:22:09;14.07;;;6.27;;
9675;SDS011;4876;42.656;23.292;2023-04-15T00:24:38;8.97;;;5.93;;
9675;SDS011;4876;42.656;23.292;2023-04-15T00:27:05;12.23;;;5.70;;
9675;SDS011;4876;42.656;23.292;2023-04-15T00:29:32;11.33;;;5.80;;
9675;SDS011;4876;42.656;23.292;2023-04-15T00:31:59;9.20;;;5.90;;
9675;SDS011;4876;42.656;23.292;2023-04-15T00:34:26;10.77;;;6.43;;
9675;SDS011;4876;42.656;23.292;2023-04-15T00:36:54;12.13;;;6.27;;
9675;SDS011;4876;42.656;23.292;2023-04-15T00:39:21;9.70;;;5.20;;
9675;SDS011;4876;42.656;23.292;2023-04-15T00:41:49;13.77;;;4.97;;
9675;SDS011;4876;42.656;23.292;2023-04-15T00:44:16;11.13;;;6.00;;
9675;SDS011;4876;42.656;23.292;2023-04-15T00:46:43;9.07;;;5.20;;
9675;SDS011;4876;42.656;23.292;2023-04-15T00:49:12;14.13;;;6.57;;
9675;SDS011;4876;42.656;23.292;2023-04-15T00:51:38;11.77;;;4.90;;
9675;SDS011;4876;42.656;23.292;2023-04-15T00:54:05;10.40;;;5.30;;
9675;SDS011;4876;42.656;23.292;2023-04-15T00:56:34;14.63;;;5.77;;
9675;SDS011;4876;42.656;23.292;2023-04-15T00:59:03;21.97;;;7.60;;
9675;SDS011;4876;42.656;23.292;2023-04-15T01:01:33;21.20;;;7.47;;
9675;SDS011;4876;42.656;23.292;2023-04-15T01:04:01;11.57;;;6.10;;
9675;SDS011;4876;42.656;23.292;2023-04-15T01:06:29;11.03;;;5.43;;
9675;SDS011;4876;42.656;23.292;2023-04-15T01:08:56;11.20;;;5.03;;
9675;SDS011;4876;42.656;23.292;2023-04-15T01:11:24;7.87;;;3.60;;
9675;SDS011;4876;42.656;23.292;2023-04-15T01:13:51;11.57;;;5.10;;
9675;SDS011;4876;42.656;23.292;2023-04-15T01:16:20;5.77;;;3.50;;
9675;SDS011;4876;42.656;23.292;2023-04-15T01:18:47;5.30;;;2.80;;
9675;SDS011;4876;42.656;23.292;2023-04-15T01:21:14;6.60;;;3.13;;
9675;SDS011;4876;42.656;23.292;2023-04-15T01:23:41;6.20;;;3.70;;
9675;SDS011;4876;42.656;23.292;2023-04-15T01:26:13;8.60;;;4.30;;
9675;SDS011;4876;42.656;23.292;2023-04-15T01:28:41;9.60;;;4.60;;
9675;SDS011;4876;42.656;23.292;2023-04-15T01:31:10;7.37;;;3.97;;
9675;SDS011;4876;42.656;23.292;2023-04-15T01:33:37;7.10;;;4.17;;
9675;SDS011;4876;42.656;23.292;2023-04-15T01:36:05;7.00;;;3.97;;
9675;SDS011;4876;42.656;23.292;2023-04-15T01:38:34;4.80;;;3.17;;
9675;SDS011;4876;42.656;23.292;2023-04-15T01:41:01;5.10;;;2.87;;
9675;SDS011;4876;42.656;23.292;2023-04-15T01:43:30;7.50;;;3.47;;
9675;SDS011;4876;42.656;23.292;2023-04-15T01:45:57;6.37;;;2.97;;
9675;SDS011;4876;42.656;23.292;2023-04-15T01:48:24;7.43;;;3.00;;
9675;SDS011;4876;42.656;23.292;2023-04-15T01:50:51;7.27;;;2.83;;
9675;SDS011;4876;42.656;23.292;2023-04-15T01:53:21;8.70;;;3.17;;
9675;SDS011;4876;42.656;23.292;2023-04-15T01:55:48;5.90;;;3.10;;
9675;SDS011;4876;42.656;23.292;2023-04-15T01:58:15;6.87;;;3.90;;
9675;SDS011;4876;42.656;23.292;2023-04-15T02:00:43;6.13;;;3.13;;
9675;SDS011;4876;42.656;23.292;2023-04-15T02:03:10;7.67;;;3.47;;
9675;SDS011;4876;42.656;23.292;2023-04-15T02:05:37;4.77;;;2.73;;
9675;SDS011;4876;42.656;23.292;2023-04-15T02:08:04;4.97;;;2.63;;
9675;SDS011;4876;42.656;23.292;2023-04-15T02:10:30;7.77;;;2.97;;
9675;SDS011;4876;42.656;23.292;2023-04-15T02:12:57;3.50;;;2.23;;
9675;SDS011;4876;42.656;23.292;2023-04-15T02:15:24;4.00;;;2.10;;
9675;SDS011;4876;42.656;23.292;2023-04-15T02:17:52;3.93;;;2.00;;
9675;SDS011;4876;42.656;23.292;2023-04-15T02:20:19;8.00;;;2.40;;
9675;SDS011;4876;42.656;23.292;2023-04-15T02:22:46;2.77;;;1.70;;
9675;SDS011;4876;42.656;23.292;2023-04-15T02:25:13;4.60;;;2.27;;
9675;SDS011;4876;42.656;23.292;2023-04-15T02:27:42;2.60;;;2.10;;
9675;SDS011;4876;42.656;23.292;2023-04-15T02:30:09;4.30;;;2.37;;
9675;SDS011;4876;42.656;23.292;2023-04-15T02:32:36;5.03;;;2.10;;
9675;SDS011;4876;42.656;23.292;2023-04-15T02:35:05;5.73;;;2.50;;
9675;SDS011;4876;42.656;23.292;2023-04-15T02:37:34;6.07;;;2.77;;
9675;SDS011;4876;42.656;23.292;2023-04-15T02:40:06;3.47;;;2.80;;
9675;SDS011;4876;42.656;23.292;2023-04-15T02:42:36;6.53;;;3.83;;
9675;SDS011;4876;42.656;23.292;2023-04-15T02:45:03;8.43;;;4.10;;
9675;SDS011;4876;42.656;23.292;2023-04-15T02:47:31;6.60;;;3.43;;
9675;SDS011;4876;42.656;23.292;2023-04-15T02:49:58;8.63;;;4.20;;
9675;SDS011;4876;42.656;23.292;2023-04-15T02:52:27;9.40;;;4.13;;
9675;SDS011;4876;42.656;23.292;2023-04-15T02:54:54;5.33;;;3.73;;
9675;SDS011;4876;42.656;23.292;2023-04-15T02:57:24;11.43;;;3.63;;
9675;SDS011;4876;42.656;23.292;2023-04-15T02:59:52;8.70;;;3.43;;
9675;SDS011;4876;42.656;23.292;2023-04-15T03:02:19;4.47;;;3.43;;
9675;SDS011;4876;42.656;23.292;2023-04-15T03:04:45;4.57;;;3.57;;
9675;SDS011;4876;42.656;23.292;2023-04-15T03:07:12;7.10;;;4.63;;
9675;SDS011;4876;42.656;23.292;2023-04-15T03:09:41;9.13;;;5.03;;
9675;SDS011;4876;42.656;23.292;2023-04-15T03:12:07;8.10;;;4.93;;
9675;SDS011;4876;42.656;23.292;2023-04-15T03:14:34;7.07;;;5.00;;
9675;SDS011;4876;42.656;23.292;2023-04-15T03:17:01;9.10;;;5.40;;
9675;SDS011;4876;42.656;23.292;2023-04-15T03:19:28;7.67;;;5.30;;
9675;SDS011;4876;42.656;23.292;2023-04-15T03:21:54;8.47;;;5.47;;
9675;SDS011;4876;42.656;23.292;2023-04-15T03:24:21;8.80;;;4.50;;
9675;SDS011;4876;42.656;23.292;2023-04-15T03:26:50;6.30;;;4.67;;
9675;SDS011;4876;42.656;23.292;2023-04-15T03:29:17;13.47;;;6.33;;
9675;SDS011;4876;42.656;23.292;2023-04-15T03:31:43;12.23;;;5.50;;
9675;SDS011;4876;42.656;23.292;2023-04-15T03:34:10;10.30;;;5.87;;
9675;SDS011;4876;42.656;23.292;2023-04-15T03:36:37;8.77;;;5.10;;
9675;SDS011;4876;42.656;23.292;2023-04-15T03:39:04;10.10;;;5.60;;
9675;SDS011;4876;42.656;23.292;2023-04-15T03:41:30;8.40;;;5.80;;
9675;SDS011;4876;42.656;23.292;2023-04-15T03:43:59;7.40;;;5.00;;
9675;SDS011;4876;42.656;23.292;2023-04-15T03:46:26;14.50;;;5.53;;
9675;SDS011;4876;42.656;23.292;2023-04-15T03:48:52;8.10;;;5.60;;
9675;SDS011;4876;42.656;23.292;2023-04-15T03:51:19;7.93;;;5.23;;
9675;SDS011;4876;42.656;23.292;2023-04-15T03:53:46;13.67;;;5.60;;
9675;SDS011;4876;42.656;23.292;2023-04-15T03:56:13;8.23;;;5.70;;
9675;SDS011;4876;42.656;23.292;2023-04-15T03:58:40;10.77;;;5.73;;
9675;SDS011;4876;42.656;23.292;2023-04-15T04:01:08;10.93;;;5.90;;
9675;SDS011;4876;42.656;23.292;2023-04-15T04:03:35;9.33;;;5.17;;
9675;SDS011;4876;42.656;23.292;2023-04-15T04:06:02;7.47;;;5.13;;
9675;SDS011;4876;42.656;23.292;2023-04-15T04:08:29;13.13;;;5.40;;
9675;SDS011;4876;42.656;23.292;2023-04-15T04:10:56;7.60;;;5.17;;
9675;SDS011;4876;42.656;23.292;2023-04-15T04:13:22;14.20;;;4.77;;
9675;SDS011;4876;42.656;23.292;2023-04-15T04:15:49;9.00;;;4.60;;
9675;SDS011;4876;42.656;23.292;2023-04-15T04:18:17;8.03;;;4.53;;
9675;SDS011;4876;42.656;23.292;2023-04-15T04:20:44;7.67;;;4.63;;
9675;SDS011;4876;42.656;23.292;2023-04-15T04:23:11;7.90;;;4.50;;
9675;SDS011;4876;42.656;23.292;2023-04-15T04:25:37;11.10;;;4.70;;
9675;SDS011;4876;42.656;23.292;2023-04-15T04:28:04;7.43;;;4.40;;
9675;SDS011;4876;42.656;23.292;2023-04-15T04:30:31;8.53;;;4.53;;
9675;SDS011;4876;42.656;23.292;2023-04-15T04:32:58;6.33;;;4.50;;
9675;SDS011;4876;42.656;23.292;2023-04-15T04:35:26;7.60;;;4.50;;
9675;SDS011;4876;42.656;23.292;2023-04-15T04:37:53;6.80;;;4.87;;
9675;SDS011;4876;42.656;23.292;2023-04-15T04:40:20;9.27;;;4.50;;
9675;SDS011;4876;42.656;23.292;2023-04-15T04:42:47;6.87;;;4.40;;
9675;SDS011;4876;42.656;23.292;2023-04-15T04:45:14;7.43;;;4.80;;
9675;SDS011;4876;42.656;23.292;2023-04-15T04:47:41;8.77;;;4.60;;
9675;SDS011;4876;42.656;23.292;2023-04-15T04:50:07;7.73;;;4.77;;
9675;SDS011;4876;42.656;23.292;2023-04-15T04:52:36;11.27;;;5.33;;
9675;SDS011;4876;42.656;23.292;2023-04-15T04:55:04;6.97;;;4.80;;
9675;SDS011;4876;42.656;23.292;2023-04-15T04:57:32;6.73;;;4.83;;
9675;SDS011;4876;42.656;23.292;2023-04-15T05:00:00;10.80;;;5.10;;
9675;SDS011;4876;42.656;23.292;2023-04-15T05:02:27;16.17;;;6.70;;
9675;SDS011;4876;42.656;23.292;2023-04-15T05:04:54;10.60;;;6.60;;
9675;SDS011;4876;42.656;23.292;2023-04-15T05:07:20;8.60;;;6.40;;
9675;SDS011;4876;42.656;23.292;2023-04-15T05:09:49;10.60;;;6.90;;
9675;SDS011;4876;42.656;23.292;2023-04-15T05:12:15;8.47;;;6.37;;
9675;SDS011;4876;42.656;23.292;2023-04-15T05:14:42;10.33;;;6.73;;
9675;SDS011;4876;42.656;23.292;2023-04-15T05:17:10;14.23;;;7.00;;
9675;SDS011;4876;42.656;23.292;2023-04-15T05:19:38;10.17;;;7.37;;
9675;SDS011;4876;42.656;23.292;2023-04-15T05:22:23;13.07;;;6.93;;
9675;SDS011;4876;42.656;23.292;2023-04-15T05:24:51;11.37;;;6.93;;
9675;SDS011;4876;42.656;23.292;2023-04-15T05:27:18;11.00;;;6.20;;
9675;SDS011;4876;42.656;23.292;2023-04-15T05:29:44;8.63;;;5.90;;
9675;SDS011;4876;42.656;23.292;2023-04-15T05:32:11;7.03;;;5.80;;
9675;SDS011;4876;42.656;23.292;2023-04-15T05:34:38;8.33;;;6.27;;
9675;SDS011;4876;42.656;23.292;2023-04-15T05:37:05;9.10;;;6.50;;
9675;SDS011;4876;42.656;23.292;2023-04-15T05:39:32;9.17;;;5.80;;
9675;SDS011;4876;42.656;23.292;2023-04-15T05:42:00;10.23;;;6.33;;
9675;SDS011;4876;42.656;23.292;2023-04-15T05:44:26;12.17;;;6.90;;
9675;SDS011;4876;42.656;23.292;2023-04-15T05:46:53;9.93;;;7.33;;
9675;SDS011;4876;42.656;23.292;2023-04-15T05:49:20;11.07;;;6.63;;
9675;SDS011;4876;42.656;23.292;2023-04-15T05:51:47;12.63;;;6.10;;
9675;SDS011;4876;42.656;23.292;2023-04-15T05:54:13;9.40;;;5.50;;
9675;SDS011;4876;42.656;23.292;2023-04-15T05:56:41;10.97;;;6.07;;
9675;SDS011;4876;42.656;23.292;2023-04-15T05:59:09;6.73;;;5.40;;
9675;SDS011;4876;42.656;23.292;2023-04-15T06:01:36;7.10;;;4.37;;
9675;SDS011;4876;42.656;23.292;2023-04-15T06:04:03;9.27;;;4.40;;
9675;SDS011;4876;42.656;23.292;2023-04-15T06:06:29;6.67;;;4.33;;
9675;SDS011;4876;42.656;23.292;2023-04-15T06:08:56;10.00;;;4.97;;
9675;SDS011;4876;42.656;23.292;2023-04-15T06:11:23;6.73;;;4.93;;
9675;SDS011;4876;42.656;23.292;2023-04-15T06:13:51;9.83;;;5.50;;
9675;SDS011;4876;42.656;23.292;2023-04-15T06:16:19;7.40;;;5.27;;
9675;SDS011;4876;42.656;23.292;2023-04-15T06:18:47;7.93;;;4.73;;
9675;SDS011;4876;42.656;23.292;2023-04-15T06:21:14;10.20;;;5.63;;
9675;SDS011;4876;42.656;23.292;2023-04-15T06:23:41;14.53;;;5.07;;
9675;SDS011;4876;42.656;23.292;2023-04-15T06:26:08;10.23;;;4.93;;
9675;SDS011;4876;42.656;23.292;2023-04-15T06:28:35;9.17;;;5.43;;
9675;SDS011;4876;42.656;23.292;2023-04-15T06:31:02;8.80;;;5.47;;
9675;SDS011;4876;42.656;23.292;2023-04-15T06:33:30;10.33;;;6.07;;
9675;SDS011;4876;42.656;23.292;2023-04-15T06:35:57;8.77;;;5.93;;
9675;SDS011;4876;42.656;23.292;2023-04-15T06:38:23;7.30;;;5.70;;
9675;SDS011;4876;42.656;23.292;2023-04-15T06:40:50;10.93;;;6.33;;
9675;SDS011;4876;42.656;23.292;2023-04-15T06:43:17;12.47;;;5.93;;
9675;SDS011;4876;42.656;23.292;2023-04-15T06:45:44;10.53;;;5.43;;
9675;SDS011;4876;42.656;23.292;2023-04-15T06:48:11;7.03;;;5.00;;
9675;SDS011;4876;42.656;23.292;2023-04-15T06:50:39;8.80;;;5.40;;
9675;SDS011;4876;42.656;23.292;2023-04-15T06:53:06;9.13;;;5.37;;
9675;SDS011;4876;42.656;23.292;2023-04-15T06:55:33;7.17;;;5.03;;
9675;SDS011;4876;42.656;23.292;2023-04-15T06:58:00;6.13;;;4.77;;
9675;SDS011;4876;42.656;23.292;2023-04-15T07:00:27;8.40;;;5.30;;
9675;SDS011;4876;42.656;23.292;2023-04-15T07:02:54;10.57;;;5.40;;
9675;SDS011;4876;42.656;23.292;2023-04-15T07:05:21;7.47;;;5.73;;
9675;SDS011;4876;42.656;23.292;2023-04-15T07:07:50;10.27;;;5.93;;
9675;SDS011;4876;42.656;23.292;2023-04-15T07:10:17;8.97;;;4.80;;
9675;SDS011;4876;42.656;23.292;2023-04-15T07:12:44;8.97;;;4.60;;
9675;SDS011;4876;42.656;23.292;2023-04-15T07:15:11;10.10;;;4.47;;
9675;SDS011;4876;42.656;23.292;2023-04-15T07:17:38;8.10;;;5.00;;
9675;SDS011;4876;42.656;23.292;2023-04-15T07:20:07;9.60;;;5.37;;
9675;SDS011;4876;42.656;23.292;2023-04-15T07:22:34;6.73;;;5.07;;
9675;SDS011;4876;42.656;23.292;2023-04-15T07:25:03;8.37;;;4.70;;
9675;SDS011;4876;42.656;23.292;2023-04-15T07:27:30;7.20;;;4.60;;
9675;SDS011;4876;42.656;23.292;2023-04-15T07:29:57;9.77;;;4.50;;
9675;SDS011;4876;42.656;23.292;2023-04-15T07:32:24;6.57;;;3.77;;
9675;SDS011;4876;42.656;23.292;2023-04-15T07:34:51;5.80;;;3.73;;
9675;SDS011;4876;42.656;23.292;2023-04-15T07:37:18;9.13;;;4.40;;
9675;SDS011;4876;42.656;23.292;2023-04-15T07:39:45;9.73;;;4.53;;
9675;SDS011;4876;42.656;23.292;2023-04-15T07:42:13;8.00;;;4.30;;
9675;SDS011;4876;42.656;23.292;2023-04-15T07:44:40;7.87;;;4.63;;
9675;SDS011;4876;42.656;23.292;2023-04-15T07:47:07;9.47;;;4.33;;
9675;SDS011;4876;42.656;23.292;2023-04-15T07:49:33;8.03;;;3.67;;
9675;SDS011;4876;42.656;23.292;2023-04-15T07:52:00;7.70;;;4.07;;
9675;SDS011;4876;42.656;23.292;2023-04-15T07:54:27;10.77;;;3.67;;
9675;SDS011;4876;42.656;23.292;2023-04-15T07:56:54;6.40;;;3.83;;
9675;SDS011;4876;42.656;23.292;2023-04-15T07:59:22;6.40;;;3.93;;
9675;SDS011;4876;42.656;23.292;2023-04-15T08:01:49;8.17;;;3.70;;
9675;SDS011;4876;42.656;23.292;2023-04-15T08:04:16;10.97;;;4.03;;
9675;SDS011;4876;42.656;23.292;2023-04-15T08:06:43;4.93;;;3.07;;
9675;SDS011;4876;42.656;23.292;2023-04-15T08:09:10;6.33;;;3.10;;
9675;SDS011;4876;42.656;23.292;2023-04-15T08:11:36;6.33;;;2.83;;
9675;SDS011;4876;42.656;23.292;2023-04-15T08:14:03;6.20;;;3.00;;
9675;SDS011;4876;42.656;23.292;2023-04-15T08:16:32;5.90;;;3.60;;
9675;SDS011;4876;42.656;23.292;2023-04-15T08:18:59;6.37;;;3.50;;
9675;SDS011;4876;42.656;23.292;2023-04-15T08:21:26;6.70;;;3.67;;
9675;SDS011;4876;42.656;23.292;2023-04-15T08:23:54;3.93;;;2.33;;
9675;SDS011;4876;42.656;23.292;2023-04-15T08:26:21;3.43;;;2.40;;
9675;SDS011;4876;42.656;23.292;2023-04-15T08:28:48;5.00;;;1.90;;
9675;SDS011;4876;42.656;23.292;2023-04-15T08:31:16;5.00;;;2.03;;
9675;SDS011;4876;42.656;23.292;2023-04-15T08:33:45;7.00;;;2.50;;
9675;SDS011;4876;42.656;23.292;2023-04-15T08:36:12;10.97;;;2.63;;
9675;SDS011;4876;42.656;23.292;2023-04-15T08:38:39;2.80;;;1.63;;
9675;SDS011;4876;42.656;23.292;2023-04-15T08:41:08;3.97;;;2.10;;
9675;SDS011;4876;42.656;23.292;2023-04-15T08:43:42;4.87;;;2.00;;
9675;SDS011;4876;42.656;23.292;2023-04-15T08:46:14;3.87;;;1.30;;
9675;SDS011;4876;42.656;23.292;2023-04-15T08:48:42;1.67;;;1.13;;
9675;SDS011;4876;42.656;23.292;2023-04-15T08:51:12;3.13;;;1.50;;
9675;SDS011;4876;42.656;23.292;2023-04-15T08:53:40;2.27;;;1.27;;
9675;SDS011;4876;42.656;23.292;2023-04-15T08:56:08;3.13;;;1.40;;
9675;SDS011;4876;42.656;23.292;2023-04-15T08:58:37;3.20;;;1.53;;
9675;SDS011;4876;42.656;23.292;2023-04-15T09:01:04;3.23;;;1.70;;
9675;SDS011;4876;42.656;23.292;2023-04-15T09:03:31;4.60;;;1.63;;
9675;SDS011;4876;42.656;23.292;2023-04-15T09:06:01;3.30;;;1.13;;
9675;SDS011;4876;42.656;23.292;2023-04-15T09:08:29;1.30;;;1.00;;
9675;SDS011;4876;42.656;23.292;2023-04-15T09:10:56;4.13;;;1.10;;
9675;SDS011;4876;42.656;23.292;2023-04-15T09:13:23;2.50;;;0.80;;
9675;SDS011;4876;42.656;23.292;2023-04-15T09:15:50;3.17;;;0.90;;
9675;SDS011;4876;42.656;23.292;2023-04-15T09:18:26;1.00;;;0.63;;
9675;SDS011;4876;42.656;23.292;2023-04-15T09:20:54;2.60;;;0.93;;
9675;SDS011;4876;42.656;23.292;2023-04-15T09:23:22;1.47;;;0.60;;
9675;SDS011;4876;42.656;23.292;2023-04-15T09:25:49;0.70;;;0.70;;
9675;SDS011;4876;42.656;23.292;2023-04-15T09:28:22;1.77;;;0.77;;
9675;SDS011;4876;42.656;23.292;2023-04-15T09:30:51;3.57;;;0.90;;
9675;SDS011;4876;42.656;23.292;2023-04-15T09:33:20;3.53;;;0.90;;
9675;SDS011;4876;42.656;23.292;2023-04-15T09:35:55;5.37;;;0.90;;
9675;SDS011;4876;42.656;23.292;2023-04-15T09:38:24;2.33;;;1.00;;
9675;SDS011;4876;42.656;23.292;2023-04-15T09:40:50;1.93;;;1.17;;
9675;SDS011;4876;42.656;23.292;2023-04-15T09:43:17;5.23;;;1.23;;
9675;SDS011;4876;42.656;23.292;2023-04-15T09:45:48;1.43;;;0.60;;
9675;SDS011;4876;42.656;23.292;2023-04-15T09:48:17;1.57;;;1.00;;
9675;SDS011;4876;42.656;23.292;2023-04-15T09:50:46;2.33;;;1.00;;
9675;SDS011;4876;42.656;23.292;2023-04-15T09:53:17;2.97;;;0.97;;
9675;SDS011;4876;42.656;23.292;2023-04-15T09:55:48;4.83;;;1.40;;
9675;SDS011;4876;42.656;23.292;2023-04-15T09:58:19;1.90;;;1.00;;
9675;SDS011;4876;42.656;23.292;2023-04-15T10:00:47;1.30;;;0.90;;
9675;SDS011;4876;42.656;23.292;2023-04-15T10:03:15;1.80;;;0.93;;
9675;SDS011;4876;42.656;23.292;2023-04-15T10:05:45;1.13;;;1.00;;
9675;SDS011;4876;42.656;23.292;2023-04-15T10:08:14;3.23;;;0.90;;
9675;SDS011;4876;42.656;23.292;2023-04-15T10:10:43;3.77;;;1.00;;
9675;SDS011;4876;42.656;23.292;2023-04-15T10:13:12;1.70;;;0.90;;
9675;SDS011;4876;42.656;23.292;2023-04-15T10:15:40;1.60;;;1.00;;
9675;SDS011;4876;42.656;23.292;2023-04-15T10:18:11;1.53;;;1.00;;
9675;SDS011;4876;42.656;23.292;2023-04-15T10:20:41;2.23;;;1.10;;
9675;SDS011;4876;42.656;23.292;2023-04-15T10:23:09;3.37;;;1.00;;
9675;SDS011;4876;42.656;23.292;2023-04-15T10:25:37;4.90;;;1.10;;
9675;SDS011;4876;42.656;23.292;2023-04-15T10:28:05;2.23;;;1.30;;
9675;SDS011;4876;42.656;23.292;2023-04-15T10:30:34;3.87;;;1.23;;
9675;SDS011;4876;42.656;23.292;2023-04-15T10:33:02;1.53;;;1.10;;
9675;SDS011;4876;42.656;23.292;2023-04-15T10:35:31;2.13;;;1.20;;
9675;SDS011;4876;42.656;23.292;2023-04-15T10:37:59;2.10;;;1.20;;
9675;SDS011;4876;42.656;23.292;2023-04-15T10:40:26;2.30;;;1.27;;
9675;SDS011;4876;42.656;23.292;2023-04-15T10:42:56;2.83;;;1.20;;
9675;SDS011;4876;42.656;23.292;2023-04-15T10:45:26;2.70;;;1.20;;
9675;SDS011;4876;42.656;23.292;2023-04-15T10:47:55;2.97;;;1.30;;
9675;SDS011;4876;42.656;23.292;2023-04-15T10:50:24;1.67;;;1.00;;
9675;SDS011;4876;42.656;23.292;2023-04-15T10:52:52;3.73;;;1.20;;
9675;SDS011;4876;42.656;23.292;2023-04-15T10:55:20;2.50;;;1.43;;
9675;SDS011;4876;42.656;23.292;2023-04-15T10:57:50;2.93;;;1.40;;
9675;SDS011;4876;42.656;23.292;2023-04-15T11:00:19;3.47;;;1.40;;
9675;SDS011;4876;42.656;23.292;2023-04-15T11:02:51;2.03;;;0.97;;
9675;SDS011;4876;42.656;23.292;2023-04-15T11:05:20;6.00;;;1.90;;
9675;SDS011;4876;42.656;23.292;2023-04-15T11:07:49;5.90;;;1.40;;
9675;SDS011;4876;42.656;23.292;2023-04-15T11:13:24;3.27;;;1.70;;
9675;SDS011;4876;42.656;23.292;2023-04-15T11:15:56;4.10;;;1.67;;
9675;SDS011;4876;42.656;23.292;2023-04-15T11:18:25;2.07;;;1.47;;
9675;SDS011;4876;42.656;23.292;2023-04-15T11:20:56;3.33;;;1.43;;
9675;SDS011;4876;42.656;23.292;2023-04-15T11:23:34;2.37;;;1.20;;
9675;SDS011;4876;42.656;23.292;2023-04-15T11:26:04;3.97;;;1.30;;
9675;SDS011;4876;42.656;23.292;2023-04-15T11:28:33;1.43;;;1.00;;
9675;SDS011;4876;42.656;23.292;2023-04-15T11:31:07;4.23;;;1.40;;
9675;SDS011;4876;42.656;23.292;2023-04-15T11:33:36;2.37;;;1.20;;
9675;SDS011;4876;42.656;23.292;2023-04-15T11:36:04;4.23;;;1.60;;
9675;SDS011;4876;42.656;23.292;2023-04-15T11:38:32;6.97;;;1.77;;
9675;SDS011;4876;42.656;23.292;2023-04-15T11:40:59;3.67;;;1.40;;
9675;SDS011;4876;42.656;23.292;2023-04-15T11:43:26;5.10;;;1.80;;
9675;SDS011;4876;42.656;23.292;2023-04-15T11:46:00;5.73;;;1.83;;
9675;SDS011;4876;42.656;23.292;2023-04-15T11:48:28;4.13;;;1.30;;
9675;SDS011;4876;42.656;23.292;2023-04-15T11:50:57;5.00;;;1.30;;
9675;SDS011;4876;42.656;23.292;2023-04-15T11:53:36;6.73;;;1.40;;
9675;SDS011;4876;42.656;23.292;2023-04-15T11:56:05;3.83;;;1.40;;
9675;SDS011;4876;42.656;23.292;2023-04-15T11:58:34;4.17;;;1.70;;
9675;SDS011;4876;42.656;23.292;2023-04-15T12:01:02;5.00;;;1.47;;
9675;SDS011;4876;42.656;23.292;2023-04-15T12:03:35;5.43;;;1.40;;
9675;SDS011;4876;42.656;23.292;2023-04-15T12:06:04;3.33;;;1.30;;
9675;SDS011;4876;42.656;23.292;2023-04-15T12:08:50;5.70;;;1.30;;
9675;SDS011;4876;42.656;23.292;2023-04-15T12:11:28;2.10;;;1.40;;
9675;SDS011;4876;42.656;23.292;2023-04-15T12:13:57;2.63;;;1.40;;
9675;SDS011;4876;42.656;23.292;2023-04-15T12:16:28;2.17;;;1.30;;
9675;SDS011;4876;42.656;23.292;2023-04-15T12:18:55;4.63;;;1.40;;
9675;SDS011;4876;42.656;23.292;2023-04-15T12:21:24;3.13;;;1.53;;
9675;SDS011;4876;42.656;23.292;2023-04-15T12:23:56;2.77;;;1.20;;
9675;SDS011;4876;42.656;23.292;2023-04-15T12:26:26;3.50;;;1.30;;
9675;SDS011;4876;42.656;23.292;2023-04-15T12:28:54;2.40;;;1.17;;
9675;SDS011;4876;42.656;23.292;2023-04-15T12:31:21;1.47;;;1.10;;
9675;SDS011;4876;42.656;23.292;2023-04-15T12:33:49;2.53;;;1.10;;
9675;SDS011;4876;42.656;23.292;2023-04-15T12:36:15;1.93;;;1.00;;
9675;SDS011;4876;42.656;23.292;2023-04-15T12:38:42;6.60;;;1.33;;
9675;SDS011;4876;42.656;23.292;2023-04-15T12:41:11;2.10;;;1.10;;
9675;SDS011;4876;42.656;23.292;2023-04-15T12:43:37;11.63;;;1.30;;
9675;SDS011;4876;42.656;23.292;2023-04-15T12:46:04;3.60;;;1.20;;
9675;SDS011;4876;42.656;23.292;2023-04-15T12:48:32;1.50;;;1.10;;
9675;SDS011;4876;42.656;23.292;2023-04-15T12:50:59;7.47;;;1.50;;
9675;SDS011;4876;42.656;23.292;2023-04-15T12:53:26;5.37;;;1.30;;
9675;SDS011;4876;42.656;23.292;2023-04-15T12:55:53;2.17;;;1.20;;
9675;SDS011;4876;42.656;23.292;2023-04-15T12:58:21;5.77;;;1.17;;
9675;SDS011;4876;42.656;23.292;2023-04-15T13:00:48;1.27;;;1.00;;
9675;SDS011;4876;42.656;23.292;2023-04-15T13:03:15;2.47;;;1.30;;
9675;SDS011;4876;42.656;23.292;2023-04-15T13:05:42;3.73;;;1.00;;
9675;SDS011;4876;42.656;23.292;2023-04-15T13:08:09;2.33;;;1.13;;
9675;SDS011;4876;42.656;23.292;2023-04-15T13:10:36;0.80;;;0.80;;
9675;SDS011;4876;42.656;23.292;2023-04-15T13:13:03;6.87;;;1.00;;
9675;SDS011;4876;42.656;23.292;2023-04-15T13:15:31;2.37;;;1.00;;
9675;SDS011;4876;42.656;23.292;2023-04-15T13:17:58;2.73;;;1.07;;
9675;SDS011;4876;42.656;23.292;2023-04-15T13:20:25;3.07;;;1.47;;
9675;SDS011;4876;42.656;23.292;2023-04-15T13:22:52;3.23;;;1.37;;
9675;SDS011;4876;42.656;23.292;2023-04-15T13:25:19;4.27;;;1.00;;
9675;SDS011;4876;42.656;23.292;2023-04-15T13:27:46;2.97;;;1.20;;
9675;SDS011;4876;42.656;23.292;2023-04-15T13:30:13;2.43;;;1.00;;
9675;SDS011;4876;42.656;23.292;2023-04-15T13:32:41;1.20;;;0.90;;
9675;SDS011;4876;42.656;23.292;2023-04-15T13:35:08;3.10;;;1.20;;
9675;SDS011;4876;42.656;23.292;2023-04-15T13:37:35;2.63;;;1.03;;
9675;SDS011;4876;42.656;23.292;2023-04-15T13:40:03;1.80;;;1.00;;
9675;SDS011;4876;42.656;23.292;2023-04-15T13:42:32;2.07;;;0.97;;
9675;SDS011;4876;42.656;23.292;2023-04-15T13:44:59;4.47;;;1.30;;
9675;SDS011;4876;42.656;23.292;2023-04-15T13:47:26;5.33;;;1.20;;
9675;SDS011;4876;42.656;23.292;2023-04-15T13:49:54;1.53;;;0.83;;
9675;SDS011;4876;42.656;23.292;2023-04-15T13:52:21;6.27;;;1.10;;
9675;SDS011;4876;42.656;23.292;2023-04-15T13:54:48;4.30;;;0.90;;
9675;SDS011;4876;42.656;23.292;2023-04-15T13:57:14;1.57;;;0.97;;
9675;SDS011;4876;42.656;23.292;2023-04-15T13:59:41;2.60;;;1.17;;
9675;SDS011;4876;42.656;23.292;2023-04-15T14:02:09;2.73;;;0.93;;
9675;SDS011;4876;42.656;23.292;2023-04-15T14:04:36;3.33;;;1.37;;
9675;SDS011;4876;42.656;23.292;2023-04-15T14:07:04;5.60;;;1.47;;
9675;SDS011;4876;42.656;23.292;2023-04-15T14:09:31;3.30;;;1.30;;
9675;SDS011;4876;42.656;23.292;2023-04-15T14:11:58;3.07;;;1.10;;
9675;SDS011;4876;42.656;23.292;2023-04-15T14:14:25;2.83;;;1.07;;
9675;SDS011;4876;42.656;23.292;2023-04-15T14:16:53;1.10;;;1.00;;
9675;SDS011;4876;42.656;23.292;2023-04-15T14:19:21;1.67;;;1.07;;
9675;SDS011;4876;42.656;23.292;2023-04-15T14:21:48;2.20;;;0.90;;
9675;SDS011;4876;42.656;23.292;2023-04-15T14:24:16;2.57;;;1.00;;
9675;SDS011;4876;42.656;23.292;2023-04-15T14:26:43;2.23;;;1.00;;
9675;SDS011;4876;42.656;23.292;2023-04-15T14:29:09;4.13;;;1.00;;
9675;SDS011;4876;42.656;23.292;2023-04-15T14:31:36;2.03;;;1.03;;
9675;SDS011;4876;42.656;23.292;2023-04-15T14:34:03;2.83;;;0.90;;
9675;SDS011;4876;42.656;23.292;2023-04-15T14:36:30;1.63;;;1.10;;
9675;SDS011;4876;42.656;23.292;2023-04-15T14:38:57;4.13;;;1.10;;
9675;SDS011;4876;42.656;23.292;2023-04-15T14:41:25;2.20;;;1.00;;
9675;SDS011;4876;42.656;23.292;2023-04-15T14:43:52;1.80;;;0.80;;
9675;SDS011;4876;42.656;23.292;2023-04-15T14:46:19;2.77;;;1.00;;
9675;SDS011;4876;42.656;23.292;2023-04-15T14:48:46;1.63;;;1.10;;
9675;SDS011;4876;42.656;23.292;2023-04-15T14:51:13;2.23;;;0.90;;
9675;SDS011;4876;42.656;23.292;2023-04-15T14:53:40;4.47;;;1.23;;
9675;SDS011;4876;42.656;23.292;2023-04-15T14:56:07;1.70;;;1.00;;
9675;SDS011;4876;42.656;23.292;2023-04-15T14:58:35;3.37;;;1.17;;
9675;SDS011;4876;42.656;23.292;2023-04-15T15:01:02;3.40;;;1.00;;
9675;SDS011;4876;42.656;23.292;2023-04-15T15:03:29;2.97;;;0.93;;
9675;SDS011;4876;42.656;23.292;2023-04-15T15:05:56;2.50;;;1.10;;